Time;durP1;ratioP1;P1;durP2;ratioP2;P2;SDS_P1;SDS_P2;PMS_P1;PMS_P2;Temp;Humidity;BMP_temperature;BMP_pressure;BME280_temperature;BME280_humidity;BME280_pressure;Samples;Min_cycle;Max_cycle;Signal;HPM_P1;HPM_P2
2021/08/31 00:02:15;;;;;;;7.80;6.82;;;;;;;13.99;88.70;99717.31;2021991;77;21045;-70
2021/08/31 00:05:17;;;;;;;7.20;6.60;;;;;;;13.94;88.81;99714.75;2022687;80;20163;-69
2021/08/31 00:08:22;;;;;;;7.72;6.71;;;;;;;13.91;88.92;99714.81;2022001;80;20636;-69
2021/08/31 00:11:24;;;;;;;8.30;7.38;;;;;;;13.91;88.88;99704.38;2022120;80;20166;-69
2021/08/31 00:14:27;;;;;;;7.75;7.05;;;;;;;13.92;88.84;99703.47;2022442;80;20240;-69
2021/08/31 00:17:30;;;;;;;8.31;7.26;;;;;;;13.89;88.86;99713.97;2021596;77;20226;-69
2021/08/31 00:20:32;;;;;;;7.63;6.89;;;;;;;13.79;88.89;99707.97;2022868;80;20779;-70
2021/08/31 00:23:35;;;;;;;8.32;6.95;;;;;;;13.76;88.74;99713.25;2022796;80;20258;-69
2021/08/31 00:26:37;;;;;;;8.26;7.47;;;;;;;13.67;88.43;99709.91;2022390;80;20268;-69
2021/08/31 00:29:40;;;;;;;7.47;6.69;;;;;;;13.60;88.51;99712.56;2022528;79;20238;-69
2021/08/31 00:32:43;;;;;;;10.16;7.54;;;;;;;13.54;88.54;99717.88;2021656;77;20262;-69
2021/08/31 00:35:45;;;;;;;9.15;6.81;;;;;;;13.48;88.57;99717.94;2022305;80;20205;-69
2021/08/31 00:38:48;;;;;;;11.14;6.97;;;;;;;13.42;88.66;99722.34;2022189;80;20240;-69
2021/08/31 00:41:50;;;;;;;7.88;6.96;;;;;;;13.35;88.73;99718.94;2021660;80;20260;-69
2021/08/31 00:44:53;;;;;;;8.13;7.21;;;;;;;13.29;88.65;99722.50;2022767;80;20499;-70
2021/08/31 00:47:56;;;;;;;7.19;6.60;;;;;;;13.20;88.43;99726.91;2021228;78;21985;-69
2021/08/31 00:50:59;;;;;;;8.10;6.76;;;;;;;13.16;88.40;99730.41;2022828;80;20352;-69
2021/08/31 00:54:03;;;;;;;7.80;6.95;;;;;;;13.09;88.44;99732.19;2022083;80;20191;-69
2021/08/31 00:57:06;;;;;;;8.99;7.03;;;;;;;13.02;88.55;99726.16;2022305;80;20205;-69
2021/08/31 01:00:13;;;;;;;8.21;7.26;;;;;;;12.96;88.86;99718.41;2021812;80;20192;-70
2021/08/31 01:03:16;;;;;;;8.60;7.72;;;;;;;12.95;89.03;99714.09;2021696;77;20830;-69
2021/08/31 01:06:19;;;;;;;7.97;7.22;;;;;;;12.94;89.12;99724.53;2022764;80;20163;-69
2021/08/31 01:09:23;;;;;;;10.06;7.35;;;;;;;12.89;89.04;99729.75;2022484;80;20284;-71
2021/08/31 01:12:27;;;;;;;8.41;7.19;;;;;;;12.81;88.96;99726.38;2022450;80;20665;-69
2021/08/31 01:15:31;;;;;;;8.38;7.29;;;;;;;12.75;89.06;99720.31;2020963;80;20268;-69
2021/08/31 01:18:34;;;;;;;8.24;7.47;;;;;;;12.73;89.53;99729.88;2021627;77;21211;-68
2021/08/31 01:21:37;;;;;;;7.99;7.20;;;;;;;12.72;89.41;99734.22;2022624;80;20285;-68
2021/08/31 01:24:41;;;;;;;7.35;6.75;;;;;;;12.67;89.19;99734.28;2022211;80;20269;-69
2021/08/31 01:27:43;;;;;;;7.50;6.80;;;;;;;12.64;88.92;99734.31;2022817;80;20175;-69
2021/08/31 01:30:53;;;;;;;7.97;7.20;;;;;;;12.59;88.96;99736.09;2021926;79;20379;-69
2021/08/31 01:33:55;;;;;;;7.89;7.19;;;;;;;12.58;89.04;99741.31;2021081;77;20197;-69
2021/08/31 01:36:59;;;;;;;8.70;7.15;;;;;;;12.58;89.09;99738.72;2022289;80;20220;-69
2021/08/31 01:40:01;;;;;;;7.49;6.74;;;;;;;12.55;89.20;99742.16;2022008;80;20212;-68
2021/08/31 01:43:25;;;;;;;8.04;7.24;;;;;;;12.49;89.09;99736.16;2022673;80;20239;-68
2021/08/31 01:46:27;;;;;;;8.36;7.06;;;;;;;12.43;89.04;99741.41;2020977;77;21575;-69
2021/08/31 01:49:30;;;;;;;7.16;6.43;;;;;;;12.34;89.09;99742.31;2022399;80;20401;-68
2021/08/31 01:52:32;;;;;;;9.34;7.30;;;;;;;12.30;89.17;99740.59;2021611;80;20188;-69
2021/08/31 01:55:35;;;;;;;8.66;7.06;;;;;;;12.26;89.33;99747.56;2021984;80;20239;-68
2021/08/31 01:58:38;;;;;;;8.35;7.38;;;;;;;12.25;89.40;99747.59;2023215;80;20749;-68
2021/08/31 02:01:40;;;;;;;8.11;7.41;;;;;;;12.24;89.34;99753.66;2021532;77;21560;-68
2021/08/31 02:04:43;;;;;;;8.01;7.21;;;;;;;12.23;89.55;99758.00;2023387;80;20171;-69
2021/08/31 02:07:46;;;;;;;8.40;6.88;;;;;;;12.20;89.40;99755.41;2023496;80;20230;-68
2021/08/31 02:10:49;;;;;;;7.59;6.94;;;;;;;12.19;89.32;99753.66;2023808;80;20179;-70
2021/08/31 02:13:51;;;;;;;7.21;6.59;;;;;;;12.14;89.20;99760.66;2023204;80;20218;-68
2021/08/31 02:16:54;;;;;;;10.36;7.10;;;;;;;12.12;89.22;99761.53;2021966;77;20258;-68
2021/08/31 02:19:57;;;;;;;8.09;7.39;;;;;;;12.12;89.27;99761.53;2024376;80;20269;-69
2021/08/31 02:22:59;;;;;;;9.16;7.11;;;;;;;12.10;89.43;99764.16;2024366;79;20610;-68
2021/08/31 02:26:02;;;;;;;7.93;7.22;;;;;;;12.09;89.48;99771.09;2024695;80;20187;-68
2021/08/31 02:29:05;;;;;;;7.25;6.57;;;;;;;12.10;89.43;99770.22;2024102;79;20305;-68
2021/08/31 02:32:07;;;;;;;6.96;6.43;;;;;;;12.06;89.33;99767.63;2022851;77;21248;-68
2021/08/31 02:35:10;;;;;;;8.18;6.79;;;;;;;12.02;89.59;99771.09;2024235;80;20209;-68
2021/08/31 02:38:13;;;;;;;8.36;7.55;;;;;;;11.99;89.39;99771.97;2024337;80;20183;-68
2021/08/31 02:41:16;;;;;;;8.06;6.63;;;;;;;11.94;89.33;99765.94;2024203;80;20185;-69
2021/08/31 02:44:18;;;;;;;6.90;6.31;;;;;;;11.93;89.30;99764.22;2024317;80;20608;-68
2021/08/31 02:47:21;;;;;;;7.34;6.55;;;;;;;11.87;89.27;99760.78;2023613;77;21450;-68
2021/08/31 02:50:24;;;;;;;7.06;6.43;;;;;;;11.87;88.93;99772.06;2023744;80;20175;-68
2021/08/31 02:53:27;;;;;;;8.32;6.78;;;;;;;11.77;88.85;99772.91;2023504;80;20200;-68
2021/08/31 02:56:30;;;;;;;7.45;6.75;;;;;;;11.76;88.87;99777.25;2024774;80;20268;-69
2021/08/31 02:59:32;;;;;;;8.95;7.01;;;;;;;11.72;89.12;99761.66;2023640;80;21216;-68
2021/08/31 03:02:35;;;;;;;6.90;6.20;;;;;;;11.71;89.13;99762.53;2023159;77;21458;-68
2021/08/31 03:05:38;;;;;;;7.84;7.04;;;;;;;11.70;89.32;99766.00;2023275;80;20588;-68
2021/08/31 03:08:41;;;;;;;8.01;7.31;;;;;;;11.69;89.55;99767.75;2023212;80;20712;-68
2021/08/31 03:11:43;;;;;;;8.60;7.03;;;;;;;11.70;89.66;99772.06;2022702;80;20186;-68
2021/08/31 03:14:46;;;;;;;7.81;6.80;;;;;;;11.69;89.39;99779.88;2023101;80;20193;-68
2021/08/31 03:17:50;;;;;;;6.75;6.06;;;;;;;11.64;89.56;99772.06;2022083;77;20270;-68
2021/08/31 03:20:53;;;;;;;7.19;6.30;;;;;;;11.65;89.85;99783.34;2022043;80;20759;-68
2021/08/31 03:23:56;;;;;;;7.79;7.09;;;;;;;11.66;89.82;99778.13;2026288;80;20215;-68
2021/08/31 03:26:58;;;;;;;7.76;6.96;;;;;;;11.65;89.84;99780.72;2022330;80;20196;-68
2021/08/31 03:30:02;;;;;;;7.81;6.88;;;;;;;11.63;89.94;99780.75;2022482;80;20732;-68
2021/08/31 03:33:05;;;;;;;7.94;7.14;;;;;;;11.63;89.98;99777.28;2016379;78;20231;-68
2021/08/31 03:36:07;;;;;;;8.11;7.31;;;;;;;11.62;89.85;99779.00;2017321;80;20265;-68
2021/08/31 03:39:10;;;;;;;7.04;6.43;;;;;;;11.62;89.91;99783.34;2018007;80;20267;-68
2021/08/31 03:42:13;;;;;;;6.25;5.75;;;;;;;11.63;89.77;99779.88;2017904;80;20213;-68
2021/08/31 03:45:16;;;;;;;7.29;6.56;;;;;;;11.61;89.57;99789.41;2020630;80;20268;-68
2021/08/31 03:48:19;;;;;;;9.65;7.03;;;;;;;11.60;89.51;99801.56;2022219;79;20194;-68
2021/08/31 03:51:22;;;;;;;9.68;7.18;;;;;;;11.56;89.67;99799.84;2022587;80;20171;-68
2021/08/31 03:54:24;;;;;;;7.14;6.54;;;;;;;11.56;89.74;99797.25;2023183;80;20179;-67
2021/08/31 03:57:27;;;;;;;7.25;6.49;;;;;;;11.53;89.55;99805.06;2023296;80;20568;-67
2021/08/31 04:00:29;;;;;;;7.86;6.26;;;;;;;11.47;89.54;99811.09;2021345;77;20338;-67
2021/08/31 04:03:32;;;;;;;9.06;6.36;;;;;;;11.47;89.47;99807.63;2022993;80;20187;-68
2021/08/31 04:06:34;;;;;;;7.15;6.47;;;;;;;11.39;89.46;99805.06;2021806;80;20191;-68
2021/08/31 04:09:37;;;;;;;7.39;6.57;;;;;;;11.37;89.60;99809.41;2022720;80;20171;-67
2021/08/31 04:12:40;;;;;;;9.65;6.26;;;;;;;11.37;89.69;99813.75;2023094;80;20196;-67
2021/08/31 04:15:42;;;;;;;7.26;6.55;;;;;;;11.35;89.75;99813.75;2021651;77;20830;-67
2021/08/31 04:18:45;;;;;;;6.95;6.25;;;;;;;11.30;89.71;99810.25;2022602;80;20830;-67
2021/08/31 04:21:47;;;;;;;11.38;6.93;;;;;;;11.29;89.82;99816.31;2022343;80;20182;-67
2021/08/31 04:24:50;;;;;;;7.99;6.88;;;;;;;11.29;89.88;99824.13;2022225;80;20649;-68
2021/08/31 04:27:52;;;;;;;10.26;7.13;;;;;;;11.30;89.91;99828.47;2022739;80;20248;-68
2021/08/31 04:30:55;;;;;;;6.93;6.22;;;;;;;11.30;89.86;99825.84;2021627;77;20201;-67
2021/08/31 04:33:58;;;;;;;7.30;6.65;;;;;;;11.27;89.83;99830.19;2022555;80;20210;-67
2021/08/31 04:37:00;;;;;;;7.96;6.35;;;;;;;11.26;89.91;99834.53;2022271;80;20191;-68
2021/08/31 04:40:03;;;;;;;8.43;7.45;;;;;;;11.24;89.79;99832.81;2022706;80;20179;-67
2021/08/31 04:43:06;;;;;;;8.49;7.57;;;;;;;11.19;89.73;99832.81;2022615;80;20197;-68
2021/08/31 04:46:11;;;;;;;7.91;7.14;;;;;;;11.15;89.69;99839.75;2020923;76;20230;-67
2021/08/31 04:49:14;;;;;;;7.61;6.90;;;;;;;11.15;89.79;99831.09;2022483;80;20191;-67
2021/08/31 04:52:17;;;;;;;7.25;6.55;;;;;;;11.12;89.89;99824.13;2021954;80;20174;-67
2021/08/31 04:55:20;;;;;;;7.81;6.34;;;;;;;11.06;89.76;99836.25;2021706;80;20195;-67
2021/08/31 04:58:23;;;;;;;7.55;6.41;;;;;;;11.04;89.45;99840.59;2022287;80;20191;-68
2021/08/31 05:01:25;;;;;;;11.91;6.72;;;;;;;11.02;89.56;99842.31;2021580;77;20183;-67
2021/08/31 05:04:32;;;;;;;7.86;6.97;;;;;;;11.01;89.47;99835.41;2022068;80;20195;-67
2021/08/31 05:07:34;;;;;;;7.89;7.09;;;;;;;10.98;89.70;99840.59;2022459;80;20250;-68
2021/08/31 05:10:37;;;;;;;8.19;7.39;;;;;;;10.99;90.12;99840.59;2022531;80;20199;-67
2021/08/31 05:13:40;;;;;;;7.14;6.54;;;;;;;11.04;90.12;99845.78;2023070;80;20905;-67
2021/08/31 05:16:43;;;;;;;7.03;6.31;;;;;;;11.02;90.13;99843.19;2021234;78;23125;-67
2021/08/31 05:19:46;;;;;;;7.10;6.40;;;;;;;11.01;90.13;99845.78;2022568;80;20238;-68
2021/08/31 05:22:51;;;;;;;8.61;6.86;;;;;;;11.00;90.22;99854.44;2021689;80;20202;-67
2021/08/31 05:25:53;;;;;;;6.89;6.20;;;;;;;10.98;90.22;99853.59;2022192;80;20175;-68
2021/08/31 05:28:56;;;;;;;8.69;6.89;;;;;;;10.98;90.27;99862.25;2022399;80;20289;-68
2021/08/31 05:31:58;;;;;;;7.43;6.72;;;;;;;10.95;90.18;99862.25;2021325;77;20306;-68
2021/08/31 05:35:01;;;;;;;7.29;6.32;;;;;;;10.97;90.29;99872.66;2021839;80;20504;-66
2021/08/31 05:38:04;;;;;;;7.32;6.65;;;;;;;10.94;90.60;99868.28;2022061;80;20379;-66
2021/08/31 05:41:07;;;;;;;9.21;7.25;;;;;;;11.02;90.79;99873.50;2022505;80;20323;-67
2021/08/31 05:44:09;;;;;;;8.64;7.81;;;;;;;11.12;90.94;99875.22;2037250;79;20194;-67
2021/08/31 05:47:12;;;;;;;9.36;8.40;;;;;;;11.26;91.14;99875.25;2036994;77;21381;-67
2021/08/31 05:50:15;;;;;;;8.93;7.65;;;;;;;11.36;91.32;99877.00;2038142;79;20186;-68
2021/08/31 05:53:17;;;;;;;8.50;7.68;;;;;;;11.50;91.42;99883.94;2037572;79;20685;-67
2021/08/31 05:56:20;;;;;;;7.63;6.93;;;;;;;11.67;91.26;99883.94;2037503;79;20626;-66
2021/08/31 05:59:23;;;;;;;8.44;7.35;;;;;;;11.85;90.87;99884.78;2037689;79;20791;-69
2021/08/31 06:02:30;;;;;;;8.13;7.25;;;;;;;11.97;90.37;99884.78;2037141;76;20565;-69
2021/08/31 06:05:32;;;;;;;8.59;7.79;;;;;;;12.01;90.15;99887.34;2038008;79;20412;-69
2021/08/31 06:08:36;;;;;;;9.04;8.18;;;;;;;12.09;90.31;99897.75;2038138;79;20172;-69
2021/08/31 06:11:40;;;;;;;8.91;7.91;;;;;;;12.21;90.04;99905.56;2037980;79;20165;-69
2021/08/31 06:14:42;;;;;;;9.80;8.84;;;;;;;12.35;90.08;99906.34;2037919;79;20217;-69
2021/08/31 06:17:45;;;;;;;9.21;8.11;;;;;;;12.46;89.91;99906.34;2037448;79;22457;-69
2021/08/31 06:20:47;;;;;;;10.52;8.66;;;;;;;12.53;89.81;99905.41;2038358;79;20172;-69
2021/08/31 06:23:50;;;;;;;9.65;7.93;;;;;;;12.61;90.02;99903.66;2038209;79;20169;-69
2021/08/31 06:26:55;;;;;;;8.45;7.59;;;;;;;12.75;90.15;99911.44;2038233;79;20246;-69
2021/08/31 06:29:58;;;;;;;8.81;8.04;;;;;;;12.88;90.02;99920.03;2040197;79;20233;-80
2021/08/31 06:33:01;;;;;;;11.60;7.86;;;;;;;13.00;89.77;99919.97;2040752;76;24162;-82
2021/08/31 06:36:04;;;;;;;8.91;8.01;;;;;;;13.10;89.70;99925.97;2041884;79;20188;-81
2021/08/31 06:39:06;;;;;;;10.01;8.98;;;;;;;13.17;89.67;99925.94;2040811;79;20210;-81
2021/08/31 06:42:09;;;;;;;11.82;9.01;;;;;;;13.28;89.70;99918.06;2040220;79;20199;-80
2021/08/31 06:45:12;;;;;;;12.16;9.06;;;;;;;13.42;89.61;99925.81;2040157;79;20237;-81
2021/08/31 06:48:14;;;;;;;11.81;8.75;;;;;;;13.59;90.12;99919.56;2042400;77;23167;-83
2021/08/31 06:51:17;;;;;;;9.85;8.85;;;;;;;13.75;90.10;99914.22;2041996;79;20219;-82
2021/08/31 06:54:19;;;;;;;9.69;8.81;;;;;;;14.01;89.97;99920.09;2042199;79;20177;-83
2021/08/31 06:57:22;;;;;;;13.68;10.09;;;;;;;14.38;88.89;99917.94;2043694;79;20209;-83
2021/08/31 07:00:25;;;;;;;11.24;10.07;;;;;;;14.55;88.01;99915.19;2042773;77;20689;-82
2021/08/31 07:03:28;;;;;;;10.91;9.23;;;;;;;14.65;87.29;99922.00;2044341;79;20277;-82
2021/08/31 07:06:50;;;;;;;11.75;10.24;;;;;;;14.82;86.78;99927.03;2044829;79;20255;-82
2021/08/31 07:09:53;;;;;;;12.75;9.51;;;;;;;15.23;85.93;99918.59;2044724;79;20632;-82
2021/08/31 07:12:55;;;;;;;11.36;10.31;;;;;;;15.45;85.20;99929.63;2047054;79;20492;-82
2021/08/31 07:15:58;;;;;;;12.30;10.21;;;;;;;15.58;84.02;99925.88;2047824;79;20202;-83
2021/08/31 07:19:00;;;;;;;11.93;9.79;;;;;;;15.75;83.67;99920.41;2046660;79;20169;-82
2021/08/31 07:22:03;;;;;;;11.66;10.11;;;;;;;15.90;82.53;99914.06;2047617;79;20173;-82
2021/08/31 07:25:06;;;;;;;10.38;9.31;;;;;;;16.07;82.36;99912.00;2050056;79;20202;-82
2021/08/31 07:28:10;;;;;;;11.46;9.81;;;;;;;16.64;81.44;99919.59;2048882;79;20198;-82
2021/08/31 07:31:13;;;;;;;12.27;9.30;;;;;;;17.10;78.51;99914.28;2047394;79;20198;-85
2021/08/31 07:34:16;;;;;;;9.51;8.54;;;;;;;17.57;76.03;99914.91;2050270;79;20616;-83
2021/08/31 07:37:19;;;;;;;9.73;8.73;;;;;;;17.56;74.12;99907.06;2051171;79;20177;-84
2021/08/31 07:40:21;;;;;;;8.50;7.55;;;;;;;17.58;74.08;99921.03;2050227;79;20250;-85
2021/08/31 07:43:25;;;;;;;9.94;7.03;;;;;;;17.71;73.80;99930.38;2051385;79;20202;-84
2021/08/31 07:46:28;;;;;;;7.54;6.72;;;;;;;17.90;73.96;99920.25;2047424;77;20295;-83
2021/08/31 07:49:30;;;;;;;7.54;6.74;;;;;;;18.26;72.55;99932.44;2049038;79;20755;-84
2021/08/31 07:52:34;;;;;;;8.71;6.13;;;;;;;18.66;71.45;99928.72;2044517;79;20229;-86
2021/08/31 07:55:37;;;;;;;7.09;6.21;;;;;;;18.88;69.83;99932.47;2050896;79;20197;-86
2021/08/31 07:58:39;;;;;;;6.51;5.88;;;;;;;19.01;68.61;99933.78;2049415;79;20161;-85
2021/08/31 08:01:43;;;;;;;8.49;6.21;;;;;;;19.16;68.88;99934.25;2049582;79;20189;-85
2021/08/31 08:04:46;;;;;;;6.30;5.79;;;;;;;19.11;67.06;99942.28;2049979;79;20165;-84
2021/08/31 08:07:48;;;;;;;5.76;4.97;;;;;;;18.95;67.98;99938.41;2052434;79;20192;-85
2021/08/31 08:10:51;;;;;;;5.45;4.95;;;;;;;18.80;68.96;99944.09;2049255;79;20173;-85
2021/08/31 08:13:54;;;;;;;6.01;4.75;;;;;;;18.65;68.67;99950.66;2047145;79;20149;-82
2021/08/31 08:16:57;;;;;;;4.75;4.44;;;;;;;18.53;69.45;99951.84;2047470;79;20190;-83
2021/08/31 08:20:00;;;;;;;5.21;4.71;;;;;;;18.43;70.06;99950.38;2049711;79;20250;-86
2021/08/31 08:23:02;;;;;;;4.50;4.14;;;;;;;18.39;69.97;99946.97;2050609;79;20169;-84
2021/08/31 08:26:06;;;;;;;5.64;4.81;;;;;;;18.36;70.34;99959.34;2050107;79;20961;-81
2021/08/31 08:29:09;;;;;;;6.01;5.25;;;;;;;18.36;70.49;99961.97;2043346;79;20198;-82
2021/08/31 08:32:13;;;;;;;7.10;5.41;;;;;;;18.32;69.68;99961.19;2047929;77;23046;-80
2021/08/31 08:35:16;;;;;;;6.03;5.41;;;;;;;18.27;69.48;99949.06;2041535;79;20209;-79
2021/08/31 08:38:19;;;;;;;5.82;5.28;;;;;;;18.24;70.31;99960.53;2045673;79;20195;-82
2021/08/31 08:41:22;;;;;;;6.15;5.51;;;;;;;18.34;71.10;99959.38;2043028;79;20680;-76
2021/08/31 08:44:28;;;;;;;6.22;4.75;;;;;;;18.40;69.87;99958.34;2042880;79;20298;-80
2021/08/31 08:47:31;;;;;;;5.57;5.03;;;;;;;18.49;70.65;99957.22;2041596;76;22223;-80
2021/08/31 08:50:34;;;;;;;6.00;4.35;;;;;;;18.54;69.53;99965.88;2040151;79;20262;-80
2021/08/31 08:53:36;;;;;;;4.97;4.45;;;;;;;18.73;69.36;99963.63;2042570;79;20165;-80
2021/08/31 08:56:39;;;;;;;11.59;4.55;;;;;;;18.88;69.38;99974.56;2040786;79;20193;-80
2021/08/31 08:59:42;;;;;;;6.85;4.20;;;;;;;18.95;67.56;99977.88;2040132;79;20821;-81
2021/08/31 09:02:44;;;;;;;7.99;4.39;;;;;;;19.00;67.09;99979.44;2039925;77;20198;-80
2021/08/31 09:05:48;;;;;;;4.20;3.80;;;;;;;19.21;68.12;99980.63;2037489;79;20640;-76
2021/08/31 09:08:53;;;;;;;6.36;3.89;;;;;;;19.41;67.46;99985.25;2041006;79;20189;-81
2021/08/31 09:11:56;;;;;;;4.31;4.00;;;;;;;19.47;66.60;99990.34;2042285;79;20210;-80
2021/08/31 09:15:20;;;;;;;4.26;3.83;;;;;;;19.50;66.11;99986.72;2040586;79;20188;-81
2021/08/31 09:18:25;;;;;;;3.33;3.05;;;;;;;19.63;66.07;99992.53;2034838;79;20170;-80
2021/08/31 09:21:29;;;;;;;2.71;2.22;;;;;;;19.79;65.34;99977.94;2035967;79;20162;-80
2021/08/31 09:24:32;;;;;;;3.45;2.69;;;;;;;19.97;63.72;99984.38;2035151;79;20233;-80
2021/08/31 09:27:37;;;;;;;4.15;2.35;;;;;;;20.06;62.69;99978.78;2036069;79;20425;-81
2021/08/31 09:30:40;;;;;;;2.38;2.17;;;;;;;20.25;61.62;99984.28;2037562;77;23216;-81
2021/08/31 09:33:45;;;;;;;2.76;2.24;;;;;;;20.48;60.69;99981.78;2042481;79;20257;-81
2021/08/31 09:36:47;;;;;;;5.44;2.40;;;;;;;20.74;60.64;99976.41;2042324;79;20187;-80
2021/08/31 09:40:15;;;;;;;3.39;2.17;;;;;;;21.02;60.11;99980.69;2040164;79;20547;-81
2021/08/31 09:43:21;;;;;;;5.19;2.28;;;;;;;21.23;58.85;99985.13;2037138;79;20178;-81
2021/08/31 09:46:43;;;;;;;3.14;2.03;;;;;;;21.17;57.46;99988.00;2038404;77;20227;-81
2021/08/31 09:49:46;;;;;;;2.35;2.13;;;;;;;21.11;57.57;99991.72;2041500;79;20201;-80
2021/08/31 09:52:59;;;;;;;4.47;2.14;;;;;;;21.04;56.86;99994.69;2043615;79;20190;-81
2021/08/31 09:56:02;;;;;;;2.60;2.20;;;;;;;20.93;57.09;99996.84;2043392;79;20214;-81
2021/08/31 09:59:05;;;;;;;4.16;2.44;;;;;;;20.89;57.38;99998.75;2046278;79;20216;-81
2021/08/31 10:02:08;;;;;;;5.13;2.38;;;;;;;20.93;57.62;100002.13;2046279;77;47657;-81
2021/08/31 10:05:11;;;;;;;2.64;1.96;;;;;;;20.97;57.48;100003.72;2047584;79;20184;-80
2021/08/31 10:08:15;;;;;;;4.31;2.13;;;;;;;21.09;57.92;99998.00;2049154;79;20199;-81
2021/08/31 10:11:18;;;;;;;4.39;1.54;;;;;;;21.28;57.91;99991.13;2045932;79;20263;-79
2021/08/31 10:14:20;;;;;;;3.10;1.88;;;;;;;21.58;57.26;99997.00;2042968;79;20206;-80
2021/08/31 10:17:29;;;;;;;3.33;2.08;;;;;;;21.76;55.20;100000.69;2041607;77;21606;-80
2021/08/31 10:20:32;;;;;;;2.59;1.54;;;;;;;21.80;55.15;99998.78;2040101;79;21163;-80
2021/08/31 10:23:48;;;;;;;2.40;1.55;;;;;;;21.83;54.35;100006.56;2040922;79;20207;-80
2021/08/31 10:26:51;;;;;;;2.47;1.50;;;;;;;21.84;53.73;100013.59;2041941;79;20269;-80
2021/08/31 10:30:19;;;;;;;1.71;1.61;;;;;;;21.79;54.07;100007.63;2043665;79;20578;-83
2021/08/31 10:33:34;;;;;;;1.81;1.71;;;;;;;21.75;55.29;100003.41;2037994;79;20196;-76
2021/08/31 10:36:37;;;;;;;1.71;1.60;;;;;;;21.74;55.22;100005.19;2039281;79;20203;-77
2021/08/31 10:39:45;;;;;;;2.56;1.50;;;;;;;21.86;53.37;100002.00;2038252;79;20193;-76
2021/08/31 10:42:47;;;;;;;9.15;1.35;;;;;;;22.11;52.64;99995.75;2038732;79;20257;-77
2021/08/31 10:45:56;;;;;;;4.26;1.46;;;;;;;22.33;51.85;99991.28;2038060;77;25276;-77
2021/08/31 10:49:02;;;;;;;5.63;1.70;;;;;;;22.43;51.82;99984.63;2038462;79;20161;-76
2021/08/31 10:52:07;;;;;;;1.89;1.60;;;;;;;22.61;51.46;99982.97;2037923;79;20173;-77
2021/08/31 10:55:28;;;;;;;3.67;1.69;;;;;;;22.92;50.16;99979.84;2037727;79;20682;-76
2021/08/31 10:58:42;;;;;;;3.15;1.63;;;;;;;23.28;50.40;99987.03;2038310;79;20732;-76
2021/08/31 11:01:45;;;;;;;1.50;1.40;;;;;;;23.37;49.93;99998.06;2036131;76;20314;-76
2021/08/31 11:04:48;;;;;;;5.86;1.66;;;;;;;23.06;49.85;99995.97;2037754;79;20201;-76
2021/08/31 11:07:54;;;;;;;2.44;1.56;;;;;;;22.74;50.04;100000.03;2036627;79;20335;-76
2021/08/31 11:10:57;;;;;;;2.15;1.70;;;;;;;22.43;50.66;99991.72;2035700;79;20205;-76
2021/08/31 11:13:59;;;;;;;2.06;1.75;;;;;;;22.25;51.15;99998.66;2036495;79;20201;-76
2021/08/31 11:17:02;;;;;;;1.75;1.65;;;;;;;22.15;52.38;100005.28;2034850;77;24121;-76
2021/08/31 11:20:16;;;;;;;3.60;1.48;;;;;;;22.08;52.67;99998.50;2035753;79;20301;-75
2021/08/31 11:23:23;;;;;;;1.30;1.20;;;;;;;22.02;52.41;99996.97;2035757;79;20193;-76
2021/08/31 11:26:26;;;;;;;2.13;1.21;;;;;;;22.11;52.55;99991.34;2036069;79;20165;-75
2021/08/31 11:29:28;;;;;;;1.42;1.30;;;;;;;22.40;52.32;99981.28;2035311;79;20219;-75
2021/08/31 11:32:32;;;;;;;2.54;1.23;;;;;;;22.48;49.87;99979.16;2035134;77;22759;-76
2021/08/31 11:35:35;;;;;;;1.48;1.20;;;;;;;22.54;50.18;99976.25;2036286;79;20210;-75
2021/08/31 11:38:47;;;;;;;1.63;1.52;;;;;;;22.58;49.81;99991.06;2035746;79;21099;-75
2021/08/31 11:41:49;;;;;;;1.52;1.20;;;;;;;22.41;49.52;99990.94;2037483;79;20214;-75
2021/08/31 11:44:57;;;;;;;1.60;1.50;;;;;;;22.10;49.41;99980.81;2037118;79;20240;-75
2021/08/31 11:48:00;;;;;;;3.11;1.34;;;;;;;21.81;49.93;99982.00;2035986;77;20897;-75
2021/08/31 11:51:04;;;;;;;1.63;1.50;;;;;;;21.62;51.27;99992.44;2039956;79;20342;-75
2021/08/31 11:54:09;;;;;;;2.85;1.36;;;;;;;21.49;52.90;99986.78;2035287;79;20182;-75
2021/08/31 11:57:13;;;;;;;1.74;1.64;;;;;;;21.37;52.70;99990.78;2036427;79;20972;-75
2021/08/31 12:00:16;;;;;;;1.48;1.38;;;;;;;21.23;52.47;99989.56;2035292;79;20556;-75
2021/08/31 12:03:29;;;;;;;2.01;1.55;;;;;;;21.10;53.61;99987.38;2036216;76;20211;-76
2021/08/31 12:06:32;;;;;;;1.60;1.34;;;;;;;21.07;54.13;99986.63;2035807;79;20615;-75
2021/08/31 12:09:41;;;;;;;1.74;1.64;;;;;;;20.99;53.14;99989.53;2036451;79;20294;-76
2021/08/31 12:12:45;;;;;;;1.60;1.50;;;;;;;21.00;52.86;99998.31;2036308;79;20194;-76
2021/08/31 12:15:49;;;;;;;3.56;1.20;;;;;;;21.02;53.45;100001.78;2035416;77;20857;-76
2021/08/31 12:18:52;;;;;;;3.64;1.63;;;;;;;21.16;54.25;100009.19;2036620;79;20196;-76
2021/08/31 12:22:15;;;;;;;4.06;2.25;;;;;;;21.18;52.41;100002.91;2036182;79;20242;-75
2021/08/31 12:25:19;;;;;;;2.33;1.30;;;;;;;21.19;52.16;99998.53;2036628;79;20989;-76
2021/08/31 12:28:22;;;;;;;2.99;1.31;;;;;;;21.33;53.32;100002.38;2035433;79;20180;-76
2021/08/31 12:31:25;;;;;;;1.79;1.69;;;;;;;21.50;53.63;100000.84;2034979;76;25332;-76
2021/08/31 12:34:28;;;;;;;2.13;1.41;;;;;;;21.65;52.44;99998.47;2030386;79;20318;-76
2021/08/31 12:37:33;;;;;;;2.94;1.80;;;;;;;21.73;52.65;100006.09;2030852;79;20209;-76
2021/08/31 12:41:06;;;;;;;1.73;1.63;;;;;;;21.80;51.68;99998.78;2029996;79;20861;-75
2021/08/31 12:44:17;;;;;;;4.24;1.67;;;;;;;21.91;51.86;99997.41;2031392;79;20181;-76
2021/08/31 12:47:20;;;;;;;2.67;2.06;;;;;;;22.07;51.53;99999.44;2035257;77;21989;-76
2021/08/31 12:50:24;;;;;;;1.88;1.44;;;;;;;22.27;51.80;99996.84;2038428;79;20181;-76
2021/08/31 12:53:42;;;;;;;2.22;1.59;;;;;;;22.40;51.54;100005.09;2037200;79;20184;-75
2021/08/31 12:56:54;;;;;;;2.06;1.84;;;;;;;22.40;50.09;100005.09;2036874;79;20265;-76
2021/08/31 12:59:57;;;;;;;1.83;1.40;;;;;;;22.24;49.75;100011.03;2037485;79;20895;-76
2021/08/31 13:02:59;;;;;;;3.94;1.46;;;;;;;22.17;49.28;100011.38;2035816;79;22859;-75
2021/08/31 13:06:04;;;;;;;2.15;1.95;;;;;;;22.13;50.33;100008.00;2036170;79;20263;-76
2021/08/31 13:09:12;;;;;;;1.61;1.35;;;;;;;22.26;51.17;100016.25;2036096;79;20768;-76
2021/08/31 13:12:17;;;;;;;3.32;1.73;;;;;;;22.37;50.42;100007.88;2035905;79;20264;-75
2021/08/31 13:15:19;;;;;;;1.94;1.45;;;;;;;22.36;49.43;100003.50;2034717;79;20189;-76
2021/08/31 13:18:22;;;;;;;1.60;1.48;;;;;;;22.28;49.81;100006.50;2034621;79;20173;-76
2021/08/31 13:21:25;;;;;;;1.56;1.46;;;;;;;22.27;49.35;100016.22;2036127;79;20264;-75
2021/08/31 13:24:29;;;;;;;1.64;1.50;;;;;;;22.36;49.23;100019.38;2035782;79;20270;-76
2021/08/31 13:27:32;;;;;;;1.20;1.14;;;;;;;22.31;49.30;100019.59;2035669;79;20176;-76
2021/08/31 13:30:35;;;;;;;1.94;1.41;;;;;;;22.18;48.78;100021.03;2034899;77;20297;-76
2021/08/31 13:33:37;;;;;;;3.45;1.50;;;;;;;22.05;49.35;100018.00;2036780;79;20202;-76
2021/08/31 13:36:43;;;;;;;4.69;1.89;;;;;;;21.89;49.44;100019.53;2035325;79;20185;-76
2021/08/31 13:39:46;;;;;;;4.41;1.35;;;;;;;21.77;50.97;100018.28;2036138;79;20181;-76
2021/08/31 13:42:49;;;;;;;1.58;1.48;;;;;;;21.63;51.43;100017.94;2036025;79;20252;-76
2021/08/31 13:45:51;;;;;;;1.60;1.50;;;;;;;21.46;51.83;100013.31;2036178;77;23760;-76
2021/08/31 13:48:54;;;;;;;2.21;1.70;;;;;;;21.34;52.31;100019.94;2036445;79;20652;-77
2021/08/31 13:51:58;;;;;;;2.33;1.64;;;;;;;21.24;52.71;100029.16;2037218;79;20512;-77
2021/08/31 13:55:01;;;;;;;3.21;2.20;;;;;;;21.14;53.30;100027.72;2037535;79;20903;-76
2021/08/31 13:58:04;;;;;;;5.69;1.63;;;;;;;21.04;53.25;100024.59;2038911;79;20242;-77
2021/08/31 14:01:08;;;;;;;3.41;1.69;;;;;;;20.96;54.62;100018.72;2037751;77;21338;-72
2021/08/31 14:04:13;;;;;;;2.58;1.70;;;;;;;20.91;54.16;100031.22;2037427;79;20169;-76
2021/08/31 14:07:16;;;;;;;2.95;1.94;;;;;;;20.90;54.36;100032.16;2036480;79;20172;-77
2021/08/31 14:10:19;;;;;;;4.35;1.79;;;;;;;20.91;55.05;100028.59;2036352;79;20944;-76
2021/08/31 14:13:22;;;;;;;3.16;2.08;;;;;;;20.89;53.91;100032.19;2036320;79;20185;-76
2021/08/31 14:16:25;;;;;;;3.31;1.64;;;;;;;20.91;54.77;100035.66;2035593;76;21221;-77
2021/08/31 14:19:29;;;;;;;2.24;1.45;;;;;;;20.90;53.90;100032.16;2033365;79;20193;-76
2021/08/31 14:22:31;;;;;;;7.72;1.88;;;;;;;20.90;53.69;100032.16;2033463;79;20248;-77
2021/08/31 14:25:34;;;;;;;7.47;1.73;;;;;;;20.95;54.33;100030.19;2040481;79;20176;-77